Tiempo atmosférico en la estación meteorológica de Maspalomas, C. Insular Turismo, Las Palmas (45 m.)



Fecha
DESCASC
Temp. máxima en grados centígrados (hora)
DESCASC
Temp. mínima en grados centígrados (hora)
DESCASC
Temp. media en grados centígrados
DESCASC
Racha de viento máxima en m/sg (hora)
DESCASC
Velocidad máxima media en intervalos de 10 minutos(hora)
DESCASC
Precipitaciones diarias en mm
DESCASC
Precipitaciones de 00:00 a 06:00 en mm
DESCASC
Precipitaciones de 06:00 a 12:00 en mm
DESCASC
Precipitaciones de 12:00 a 18:00 en mm
DESCASC
Precipitaciones de 18:00 a 24:00 en mm
DESCASC
24-05-2020 28.6 (18:10) 21.4 (02:50) 25 10 (15:10) 5.56 (15:40) 0 0 0 0 0
23-05-2020 33.2 (13:20) 19.9 (07:30) 26.6 13.06 (14:10) 5.56 (14:20) 0 0 0 0 0
22-05-2020 26.7 (15:10) 18.1 (07:30) 22.4 6.67 (12:20) 3.89 (16:20) 0 0 0 0 0
21-05-2020 25.6 (16:50) 18.7 (00:00) 22.2 8.06 (14:30) 4.17 (13:10) 0 0 0 0 0
20-05-2020 26.5 (16:10) 18.2 (00:00) 22.4 9.72 (14:20) 4.72 (16:50) 0 0 0 0 0
19-05-2020 24.7 (16:20) 18.1 (00:00) 21.4 8.06 (17:30) 5 (17:40) 0 0 0 0 0
18-05-2020 24.5 (16:00) 17.6 (00:00) 21.1 7.5 (14:10) 4.72 (14:40) 0 0 0 0 0
17-05-2020 24.6 (16:20) 19.2 (00:00) 21.9 10 (11:10) 5 (13:40) 0 0 0 0 0
16-05-2020 24.2 (18:30) 18.5 (00:00) 21.4 12.22 (17:40) 6.11 (17:00) 0 0 0 0 0
15-05-2020 24.9 (15:20) 17.5 (00:00) 21.2 8.61 (18:20) 5.28 (16:40) 0 0 0 0 0
14-05-2020 25.1 (17:00) 17.8 (00:00) 21.4 7.5 (16:40) 4.17 (16:40) 0 0 0 0 0
13-05-2020 25.7 (15:30) 19.6 (00:00) 22.7 9.17 (12:50) 5.28 (17:50) 0 0 0 0 0
12-05-2020 23.9 (14:30) 19 (00:00) 21.4 10 (16:20) 5.56 (16:00) 0 0 0 0 0
11-05-2020 24.2 (11:40) 19.8 (00:00) 22 7.5 (13:20) 4.72 (13:50) 0 0 0 0 0
10-05-2020 25.2 (15:00) 19.6 (00:00) 22.4 8.33 (16:10) 5 (16:00) 0 0 0 0 0
09-05-2020 25 (16:20) 18.4 (00:00) 21.7 8.61 (16:40) 5.28 (15:40) 0 0 0 0 0
08-05-2020 24.3 (13:20) 17.9 (00:00) 21.1 9.44 (16:30) 4.72 (17:50) 0 0 0 0 0
07-05-2020 24.7 (14:00) 18.3 (00:00) 21.5 9.72 (16:20) 5 (15:30) 0 0 0 0 0
06-05-2020 24.8 (17:20) 17.8 (00:00) 21.3 7.78 (14:30) 5.28 (14:30) 0 0 0 0 0
05-05-2020 25 (17:20) 17.9 (00:00) 21.4 13.33 (16:50) 5.83 (16:50) 0 0 0 0 0
04-05-2020 22 (18:20) 18.6 (00:00) 20.3 8.89 (10:40) 5.56 (12:30) 0 0 0 0 0
03-05-2020 24 (16:40) 17 (00:00) 20.5 12.5 (15:30) 7.22 (16:10) 0 0 0 0 0
02-05-2020 23.8 (18:20) 17.6 (00:00) 20.7 10 (11:30) 5.56 (11:10) 0 0 0 0 0
01-05-2020 25.4 (15:40) 17.7 (00:00) 21.6 11.67 (13:50) 5.56 (13:50) 0 0 0 0 0
30-04-2020 25.4 (16:20) 16.9 (00:00) 21.1 7.78 (14:10) 4.72 (15:00) 0 0 0 0 0
29-04-2020 24.3 (15:20) 17.4 (00:00) 20.8 8.33 (13:50) 4.72 (13:30) 0 0 0 0 0

Gráficas

Temp. máximas Temp. mínimas Temp. medias Precipitaciones Rachas de viento máximas Velocidades máximas media en intervalos de 10 minutos

Datos horarios

Fecha y hora oficial Temperatura (ºC) Velocidad del viento (km/h) Dirección del viento Racha (km/h) Dirección de racha Precipitación (mm) Presión (hPa) Tendencia (hPa) Humedad (%)
2020-05-28 23:00:00 21.5 0 Calma 12 Oeste 0 -- -- 81
2020-05-28 22:00:00 21.9 7 Sudoeste 19 Oeste 0 -- -- 79
2020-05-28 21:00:00 22.5 10 Oeste 18 Oeste 0 -- -- 74
2020-05-28 20:00:00 24.2 9 Sudoeste 15 Oeste 0 -- -- 68
2020-05-28 19:00:00 24.8 9 Sudoeste 15 Sudoeste 0 -- -- 67
2020-05-28 18:00:00 22.6 10 Sudeste 20 Sur 0 -- -- 74
2020-05-28 17:00:00 24.2 8 Sur 21 Sur 0 -- -- 71
2020-05-28 16:00:00 25.6 13 Sudoeste 23 Sudoeste 0 -- -- 66
2020-05-28 15:00:00 25.8 10 Sudoeste 23 Sudoeste 0 -- -- 64
2020-05-28 14:00:00 25.3 10 Sudoeste 23 Sudoeste 0 -- -- 67
2020-05-28 13:00:00 25 13 Sudoeste 21 Sudoeste 0 -- -- 68
2020-05-28 12:00:00 24 9 Sur 15 Sudoeste 0 -- -- 72
2020-05-28 11:00:00 23.4 7 Sur 18 Este 0 -- -- 75
2020-05-28 10:00:00 21.2 8 Sudeste 12 Este 0 -- -- 83
2020-05-28 09:00:00 20.2 5 Noroeste 8 Oeste 0 -- -- 86
2020-05-28 08:00:00 19.4 3 Norte 6 Oeste 0 -- -- 90
2020-05-28 07:00:00 19.2 2 Sudoeste 10 Nordeste 0 -- -- 89
2020-05-28 06:00:00 19.5 5 Este 10 Sudeste 0 -- -- 89
2020-05-28 05:00:00 19.8 0 Calma 9 Oeste 0 -- -- 87
2020-05-28 04:00:00 20.1 3 Oeste 16 Oeste 0 -- -- 88
2020-05-28 03:00:00 20.1 5 Sudoeste 9 Sudoeste 0 -- -- 90
2020-05-28 02:00:00 20 4 Este 8 Este 0 -- -- 90
2020-05-28 01:00:00 20.3 2 Sur 7 Sudeste 0 -- -- 89
2020-05-28 00:00:00 20.4 3 Sudeste 8 Sudoeste 0 -- -- 87
2020-05-27 23:00:00 20.9 6 Oeste 15 Sudoeste 0 -- -- 85
2020-05-27 22:00:00 21.2 9 Oeste 18 Sudoeste 0 -- -- 84
2020-05-27 21:00:00 21.7 10 Oeste 19 Oeste 0 -- -- 80
2020-05-27 20:00:00 23.6 9 Sudoeste 16 Sudoeste 0 -- -- 73
2020-05-27 19:00:00 24 7 Sudoeste 17 Este 0 -- -- 72
2020-05-27 18:00:00 21.4 11 Sudeste 21 Sudeste 0 -- -- 82
2020-05-27 17:00:00 21.4 14 Sudeste 23 Este 0 -- -- 79
2020-05-27 16:00:00 21.4 15 Sudeste 22 Sudeste 0 -- -- 78
2020-05-27 15:00:00 22.2 15 Este 23 Este 0 -- -- 74
2020-05-27 14:00:00 21.9 13 Sudeste 22 Este 0 -- -- 76
2020-05-27 13:00:00 22.4 12 Sudeste 20 Sudeste 0 -- -- 76
2020-05-27 12:00:00 24 10 Sudoeste 24 Sudoeste 0 -- -- 71
2020-05-27 11:00:00 22.9 10 Sudoeste 17 Sudeste 0 -- -- 77
2020-05-27 10:00:00 21 7 Sudeste 12 Sudeste 0 -- -- 85
2020-05-27 09:00:00 20.1 6 Este 11 Oeste 0 -- -- 86
2020-05-27 08:00:00 20.3 6 Oeste 14 Oeste 0 -- -- 90
2020-05-27 07:00:00 19.6 0 Calma 10 Oeste 0 -- -- 92
2020-05-27 06:00:00 20 2 Sudoeste 7 Norte 0 -- -- 91
2020-05-27 05:00:00 20.2 0 Calma 10 Sudoeste 0 -- -- 89
2020-05-27 04:00:00 20.5 0 Calma 6 Sudeste 0 -- -- 89
2020-05-27 03:00:00 20.6 4 Sudeste 12 Sudeste 0 -- -- 86
2020-05-27 02:00:00 21 8 Sudeste 12 Sudeste 0 -- -- 86
2020-05-27 01:00:00 21.5 4 Sudoeste 7 Oeste 0 -- -- 82
2020-05-27 00:00:00 21.7 3 Sudoeste 8 Sudeste 0 -- -- 81
2020-05-26 23:00:00 22.1 7 Sudeste 10 Sudeste 0 -- -- 85
2020-05-26 22:00:00 23 3 Sudoeste 11 Sudoeste 0 -- -- 80
2020-05-26 21:00:00 23.9 7 Sudoeste 13 Sudoeste 0 -- -- 76
2020-05-26 20:00:00 24.8 5 Sur 17 Este 0 -- -- 71
2020-05-26 19:00:00 24.8 9 Este 22 Este 0 -- -- 71
2020-05-26 18:00:00 25.3 13 Este 22 Este 0 -- -- 69
2020-05-26 17:00:00 25.3 11 Este 20 Este 0 -- -- 69
2020-05-26 16:00:00 25.9 8 Sudeste 18 Sudoeste 0 -- -- 66
2020-05-26 15:00:00 27 10 Oeste 19 Sudoeste 0 -- -- 62
2020-05-26 14:00:00 27.5 10 Oeste 18 Sudoeste 0 -- -- 60
2020-05-26 13:00:00 26.7 8 Sudoeste 15 Sudoeste 0 -- -- 63
2020-05-26 12:00:00 23.9 5 Sur 13 Sudeste 0 -- -- 73
2020-05-26 11:00:00 22.1 7 Sudeste 14 Sudeste 0 -- -- 81
2020-05-26 10:00:00 21.8 7 Sudeste 11 Este 0 -- -- 82
2020-05-26 09:00:00 21.6 4 Este 10 Este 0 -- -- 83
2020-05-26 08:00:00 20.3 5 Oeste 13 Oeste 0 -- -- 88
2020-05-26 07:00:00 20 4 Oeste 12 Oeste 0 -- -- 90
2020-05-26 06:00:00 20 4 Oeste 8 Oeste 0 -- -- 92
2020-05-26 05:00:00 20.3 2 Oeste 8 Sur 0 -- -- 92
2020-05-26 04:00:00 20.3 3 Sur 5 Oeste 0 -- -- 88
2020-05-26 03:00:00 20.6 3 Oeste 10 Oeste 0 -- -- 89
2020-05-26 02:00:00 20.8 5 Oeste 11 Oeste 0 -- -- 89
2020-05-26 01:00:00 21 7 Oeste 14 Oeste 0 -- -- 89
2020-05-26 00:00:00 21.5 6 Oeste 11 Sudoeste 0 -- -- 87
2020-05-25 23:00:00 22.1 4 Oeste 8 Sudoeste 0 -- -- 83
2020-05-25 22:00:00 23 3 Sudoeste 14 Oeste 0 -- -- 78
2020-05-25 21:00:00 23.9 7 Oeste 15 Sudoeste 0 -- -- 74
2020-05-25 20:00:00 26.1 12 Oeste 17 Sudoeste 0 -- -- 62
2020-05-25 19:00:00 27 10 Oeste 19 Oeste 0 -- -- 60
2020-05-25 18:00:00 27.3 12 Sudoeste 18 Sudoeste 0 -- -- 57
2020-05-25 17:00:00 26.2 9 Sur 16 Sudeste 0 -- -- 59
2020-05-25 16:00:00 24.9 8 Sudeste 30 Este 0 -- -- 67
2020-05-25 15:00:00 23.8 14 Este 32 Sudeste 0 -- -- 73
2020-05-25 14:00:00 24.6 13 Sudeste 23 Este 0 -- -- 69
2020-05-25 13:00:00 26.4 9 Sudoeste 19 Sur 0 -- -- 65
2020-05-25 12:00:00 24.8 10 Sur 17 Sudoeste 0 -- -- 70
2020-05-25 11:00:00 24.3 7 Sur 13 Sudeste 0 -- -- 72
2020-05-25 10:00:00 22 9 Sudeste 17 Sudeste 0 -- -- 82
2020-05-25 09:00:00 21.5 3 Oeste 13 Oeste 0 -- -- 84
2020-05-25 08:00:00 20 9 Oeste 19 Oeste 0 -- -- 92
2020-05-25 07:00:00 19.6 8 Oeste 14 Oeste 0 -- -- 94
2020-05-25 06:00:00 20 2 Noroeste 6 Sudoeste 0 -- -- 94
2020-05-25 05:00:00 20 5 Sudoeste 8 Oeste 0 -- -- 93
2020-05-25 04:00:00 20.3 3 Oeste 13 Oeste 0 -- -- 89
2020-05-25 03:00:00 20.7 8 Oeste 13 Oeste 0 -- -- 90
2020-05-25 02:00:00 21.1 4 Sudoeste 9 Oeste 0 -- -- 88
2020-05-25 01:00:00 21.5 3 Oeste 11 Oeste 0 -- -- 86
2020-05-25 00:00:00 21.9 5 Oeste 10 Sudoeste 0 -- -- 82
2020-05-24 23:00:00 22.3 3 Sudoeste 5 Oeste 0 -- -- 81
2020-05-24 22:00:00 22.4 2 Este 9 Sudeste 0 -- -- 81
2020-05-24 21:00:00 22.9 2 Oeste 14 Este 0 -- -- 79
2020-05-24 20:00:00 22.4 9 Sudeste 18 Sudeste 0 -- -- 83
2020-05-24 19:00:00 26.9 9 Sudoeste 15 Sudoeste 0 -- -- 62
2020-05-24 18:00:00 28.3 10 Sudoeste 25 Sudoeste 0 -- -- 56
2020-05-24 17:00:00 27.7 17 Sudoeste 31 Este 0 -- -- 58
2020-05-24 16:00:00 23.1 15 Este 36 Este 0 -- -- 76
2020-05-24 15:00:00 22.8 19 Este 33 Este 0 -- -- 77
2020-05-24 14:00:00 22.8 17 Este 32 Este 0 -- -- 76
2020-05-24 13:00:00 24.1 15 Sudeste 32 Este 0 -- -- 69
2020-05-24 12:00:00 26.8 15 Sudoeste 28 Sur 0 -- -- 56
2020-05-24 11:00:00 27.5 12 Oeste 22 Oeste 0 -- -- 48
2020-05-24 10:00:00 27.2 10 Oeste 15 Oeste 0 -- -- 46
2020-05-24 09:00:00 25.2 7 Sudoeste 12 Sudoeste 0 -- -- 50
2020-05-24 08:00:00 22.7 7 Oeste 13 Oeste 0 -- -- 48
2020-05-24 07:00:00 22.7 8 Oeste 17 Oeste 0 -- -- 49
2020-05-24 06:00:00 22.7 4 Noroeste 13 Oeste 0 -- -- 51
2020-05-24 05:00:00 22.4 5 Noroeste 11 Oeste 0 -- -- 60
2020-05-24 04:00:00 22.3 6 Noroeste 15 Oeste 0 -- -- 70
2020-05-24 03:00:00 21.4 7 Oeste 13 Oeste 0 -- -- 80
2020-05-24 02:00:00 21.5 5 Oeste 13 Oeste 0 -- -- 82
2020-05-24 01:00:00 21.7 6 Oeste 13 Sudoeste 0 -- -- 83
2020-05-24 00:00:00 21.8 10 Oeste 17 Oeste 0 -- -- 85
2020-05-23 23:00:00 22.2 2 Sudoeste 5 Sudoeste 0 -- -- 82
2020-05-23 22:00:00 22.4 5 Sudoeste 10 Sudoeste 0 -- -- 80
2020-05-23 21:00:00 23.6 7 Sudoeste 12 Sudoeste 0 -- -- 75
2020-05-23 20:00:00 26 7 Sudoeste 22 Sudoeste 0 -- -- 65
2020-05-23 19:00:00 27.7 13 Sudoeste 22 Sudoeste 0 -- -- 60
2020-05-23 18:00:00 29.4 15 Oeste 31 Este 0 -- -- 53
2020-05-23 17:00:00 30.5 18 Sudoeste 27 Este 0 -- -- 49
2020-05-23 16:00:00 29.9 15 Este 42 Nordeste 0 -- -- 49
2020-05-23 15:00:00 29.4 16 Este 47 Este 0 -- -- 50
2020-05-23 14:00:00 31.4 12 Nordeste 31 Este 0 -- -- 42
2020-05-23 13:00:00 32 12 Este 32 Nordeste 0 -- -- 36
2020-05-23 12:00:00 28.8 11 Sudoeste 27 Oeste 0 -- -- 47
2020-05-23 11:00:00 25.5 18 Oeste 25 Sudoeste 0 -- -- 58
2020-05-23 10:00:00 24.1 12 Sudoeste 22 Sudoeste 0 -- -- 71
2020-05-23 09:00:00 22.3 10 Oeste 19 Sudoeste 0 -- -- 78
2020-05-23 08:00:00 20.4 7 Oeste 15 Oeste 0 -- -- 81
2020-05-23 07:00:00 20 7 Oeste 14 Noroeste 0 -- -- 80
2020-05-23 06:00:00 20.2 5 Norte 15 Sudoeste 0 -- -- 72
2020-05-23 05:00:00 20.1 5 Oeste 10 Oeste 0 -- -- 82
2020-05-23 04:00:00 20.1 7 Oeste 12 Oeste 0 -- -- 81
2020-05-23 03:00:00 20.5 8 Noroeste 12 Oeste 0 -- -- 88
2020-05-23 02:00:00 20.6 5 Oeste 13 Oeste 0 -- -- 87
2020-05-23 01:00:00 20.8 6 Oeste 12 Sudoeste 0 -- -- 85
2020-05-23 00:00:00 21.1 7 Oeste 13 Sudoeste 0 -- -- 81
2020-05-22 23:00:00 21.3 6 Oeste 9 Oeste 0 -- -- 79
2020-05-22 22:00:00 21.5 5 Sudoeste 18 Sudoeste 0 -- -- 78
2020-05-22 21:00:00 22.4 10 Oeste 19 Sudoeste 0 -- -- 72
2020-05-22 20:00:00 24.4 8 Sudoeste 13 Sudoeste 0 -- -- 66
2020-05-22 19:00:00 24.9 9 Sudoeste 19 Sur 0 -- -- 62
2020-05-22 18:00:00 25.8 9 Sudoeste 22 Sudoeste 0 -- -- 58
2020-05-22 17:00:00 26.5 10 Sudoeste 22 Sudoeste 0 -- -- 54
2020-05-22 16:00:00 26.4 13 Sudoeste 23 Sudoeste 0 -- -- 53
2020-05-22 15:00:00 26.2 11 Sudoeste 22 Sudoeste 0 -- -- 51
2020-05-22 14:00:00 25.9 12 Sudoeste 21 Sudoeste 0 -- -- 55
2020-05-22 13:00:00 25.2 12 Sudoeste 24 Oeste 0 -- -- 56
2020-05-22 12:00:00 24.8 10 Oeste 20 Sudoeste 0 -- -- 55
2020-05-22 11:00:00 24.1 9 Sudoeste 17 Sudoeste 0 -- -- 61
2020-05-22 10:00:00 23 3 Sur 11 Sudoeste 0 -- -- 66
2020-05-22 09:00:00 20.4 8 Noroeste 12 Noroeste 0 -- -- 76
2020-05-22 08:00:00 18.7 3 Norte 8 Norte 0 -- -- 78
2020-05-22 07:00:00 18.3 0 Calma 6 Norte 0 -- -- 80
2020-05-22 06:00:00 18.6 3 Norte 9 Noroeste 0 -- -- 80
2020-05-22 05:00:00 18.8 6 Noroeste 12 Noroeste 0 -- -- 81
2020-05-22 04:00:00 18.7 3 Oeste 5 Oeste 0 -- -- 76
2020-05-22 03:00:00 18.6 4 Sudeste 5 Sudeste 0 -- -- 70
2020-05-22 02:00:00 19.1 2 Sudeste 9 Este 0 -- -- 67
2020-05-22 01:00:00 19.7 6 Este 8 Este 0 -- -- 65
2020-05-22 00:00:00 20 3 Sudeste 10 Este 0 -- -- 68
2020-05-21 23:00:00 20.9 7 Oeste 14 Oeste 0 -- -- 72
2020-05-21 22:00:00 21.4 6 Oeste 13 Oeste 0 -- -- 69
2020-05-21 21:00:00 22.2 7 Sudoeste 14 Sudoeste 0 -- -- 65
2020-05-21 20:00:00 23.6 9 Sudoeste 23 Sudoeste 0 -- -- 59
2020-05-21 19:00:00 24.9 9 Sudoeste 18 Oeste 0 -- -- 54
2020-05-21 18:00:00 25.2 10 Sudoeste 21 Sudoeste 0 -- -- 54
2020-05-21 17:00:00 25.3 13 Sudoeste 23 Sudoeste 0 -- -- 55
2020-05-21 16:00:00 25.1 13 Sudoeste 25 Sudoeste 0 -- -- 55
2020-05-21 15:00:00 24.7 13 Sudoeste 29 Sur 0 -- -- 59
2020-05-21 14:00:00 24.8 13 Sudoeste 24 Sudoeste 0 -- -- 59
2020-05-21 13:00:00 24.8 12 Sudoeste 21 Sudoeste 0 -- -- 56
2020-05-21 12:00:00 24.1 14 Sudoeste 21 Sudoeste 0 -- -- 57
2020-05-21 11:00:00 23.9 9 Sudoeste 15 Sudoeste 0 -- -- 56
2020-05-21 10:00:00 22.3 9 Este 13 Sudeste 0 -- -- 59
2020-05-21 09:00:00 21.3 5 Este 10 Este 0 -- -- 57
2020-05-21 08:00:00 19.3 0 Calma 8 Norte 0 -- -- 70
2020-05-21 07:00:00 18.8 5 Norte 6 Norte 0 -- -- 75
2020-05-21 06:00:00 18.8 0 Calma 5 Oeste 0 -- -- 75
2020-05-21 05:00:00 19 0 Calma 7 Noroeste 0 -- -- 77
2020-05-21 04:00:00 19.8 5 Oeste 9 Oeste 0 -- -- 74
2020-05-21 03:00:00 20.1 6 Oeste 9 Oeste 0 -- -- 73
2020-05-21 02:00:00 20.7 5 Noroeste 9 Oeste 0 -- -- 75
2020-05-21 01:00:00 20.9 5 Oeste 9 Oeste 0 -- -- 74
2020-05-21 00:00:00 21.4 3 Oeste 7 Oeste 0 -- -- 74
2020-05-20 23:00:00 21.6 3 Noroeste 6 Sur 0 -- -- 77
2020-05-20 22:00:00 22 4 Sur 12 Oeste 0 -- -- 74
2020-05-20 21:00:00 22.9 8 Sudoeste 14 Sudoeste 0 -- -- 69
2020-05-20 20:00:00 24.7 9 Oeste 16 Sudoeste 0 -- -- 60
2020-05-20 19:00:00 25.4 8 Sudoeste 18 Sudoeste 0 -- -- 59
2020-05-20 18:00:00 25.6 13 Sudoeste 22 Oeste 0 -- -- 59
2020-05-20 17:00:00 25.6 15 Sudoeste 28 Sudoeste 0 -- -- 59
2020-05-20 16:00:00 26.4 15 Sudoeste 23 Sudoeste 0 -- -- 54
2020-05-20 15:00:00 25.8 13 Sudoeste 35 Sudoeste 0 -- -- 58
2020-05-20 14:00:00 25.8 12 Sudoeste 22 Sudoeste 0 -- -- 59
2020-05-20 13:00:00 25 10 Sudoeste 21 Sudoeste 0 -- -- 58
2020-05-20 12:00:00 24.3 11 Sudoeste 20 Sudoeste 0 -- -- 62
2020-05-20 11:00:00 23.4 10 Sudoeste 17 Sudoeste 0 -- -- 66
2020-05-20 10:00:00 22.7 6 Sudoeste 10 Sudoeste 0 -- -- 69
2020-05-20 09:00:00 20.9 3 Oeste 9 Noroeste 0 -- -- 75
2020-05-20 08:00:00 18.7 7 Noroeste 10 Noroeste 0 -- -- 77
2020-05-20 07:00:00 18.3 5 Noroeste 10 Noroeste 0 -- -- 79
2020-05-20 06:00:00 18.6 4 Noroeste 8 Norte 0 -- -- 80
2020-05-20 05:00:00 18.8 4 Norte 7 Norte 0 -- -- 80
2020-05-20 04:00:00 19.3 0 Calma 3 Este 0 -- -- 82
2020-05-20 03:00:00 19.6 0 Calma 6 Oeste 0 -- -- 81
2020-05-20 02:00:00 19.9 3 Oeste 8 Oeste 0 -- -- 80
2020-05-20 01:00:00 20.2 3 Oeste 10 Oeste 0 -- -- 78
2020-05-20 00:00:00 20.5 4 Oeste 9 Oeste 0 -- -- 76
2020-05-19 23:00:00 20.7 2 Oeste 6 Sudoeste 0 -- -- 78
2020-05-19 22:00:00 20.8 4 Sudoeste 11 Sudoeste 0 -- -- 79
2020-05-19 21:00:00 21.6 6 Sudoeste 15 Sudoeste 0 -- -- 72
2020-05-19 20:00:00 22.8 12 Sudoeste 24 Sudoeste 0 -- -- 66
2020-05-19 19:00:00 23.5 16 Sur 28 Sudoeste 0 -- -- 63
2020-05-19 18:00:00 23.9 16 Sudoeste 29 Sudoeste 0 -- -- 64
2020-05-19 17:00:00 24.6 15 Sudoeste 27 Sudoeste 0 -- -- 61
2020-05-19 16:00:00 24.5 12 Sur 24 Sur 0 -- -- 59
2020-05-19 15:00:00 24.6 9 Sur 21 Sur 0 -- -- 57
2020-05-19 14:00:00 24.6 9 Sudoeste 24 Sudoeste 0 -- -- 57
2020-05-19 13:00:00 24.3 13 Sudoeste 23 Sudoeste 0 -- -- 56
2020-05-19 12:00:00 23.7 12 Sudoeste 20 Sudoeste 0 -- -- 56
2020-05-19 11:00:00 23.2 8 Sudoeste 16 Sudoeste 0 -- -- 55
2020-05-19 10:00:00 22.1 5 Sudeste 10 Sudeste 0 -- -- 61
2020-05-19 09:00:00 21.1 3 Sudoeste 8 Norte 0 -- -- 64
2020-05-19 08:00:00 18.4 5 Norte 9 Norte 0 -- -- 70
2020-05-19 07:00:00 18.3 5 Norte 10 Norte 0 -- -- 71
2020-05-19 06:00:00 18.7 5 Noroeste 7 Noroeste 0 -- -- 72
2020-05-19 05:00:00 19 3 Sudoeste 5 Sudoeste 0 -- -- 75
2020-05-19 04:00:00 19.5 0 Calma 4 Sur 0 -- -- 73
2020-05-19 03:00:00 19.8 3 Sudoeste 4 Noroeste 0 -- -- 72
2020-05-19 02:00:00 19.5 3 Sudoeste 9 Oeste 0 -- -- 74
2020-05-19 01:00:00 19.6 4 Oeste 9 Sudoeste 0 -- -- 75
2020-05-19 00:00:00 19.9 4 Oeste 18 Oeste 0 -- -- 74
2020-05-18 23:00:00 20.3 7 Oeste 15 Oeste 0 -- -- 73
2020-05-18 22:00:00 20.5 9 Oeste 14 Oeste 0 -- -- 72
2020-05-18 21:00:00 21 8 Sudoeste 16 Sudoeste 0 -- -- 70
2020-05-18 20:00:00 22.1 11 Sudoeste 20 Sur 0 -- -- 66
2020-05-18 19:00:00 22.7 10 Sur 25 Sur 0 -- -- 61
2020-05-18 18:00:00 23.3 13 Sur 24 Sudoeste 0 -- -- 59
2020-05-18 17:00:00 23.3 15 Sudoeste 24 Sudoeste 0 -- -- 59
2020-05-18 16:00:00 24.5 12 Sudoeste 26 Sudoeste 0 -- -- 55
2020-05-18 15:00:00 23.1 16 Sudoeste 27 Sudoeste 0 -- -- 59
2020-05-18 14:00:00 23.2 15 Oeste 26 Oeste 0 -- -- 58
2020-05-18 13:00:00 23.1 14 Sudoeste 23 Oeste 0 -- -- 59
2020-05-18 12:00:00 23.3 11 Sudoeste 19 Sudoeste 0 -- -- 55
2020-05-18 11:00:00 22.3 9 Sudoeste 18 Oeste 0 -- -- 58
2020-05-18 10:00:00 21.2 6 Oeste 10 Oeste 0 -- -- 61
2020-05-18 09:00:00 20 4 Nordeste 7 Norte 0 -- -- 62
2020-05-18 08:00:00 17.9 5 Norte 8 Norte 0 -- -- 66
2020-05-18 07:00:00 17.7 5 Norte 9 Norte 0 -- -- 66
2020-05-18 06:00:00 18 2 Noroeste 6 Norte 0 -- -- 68
2020-05-18 05:00:00 18.3 3 Norte 8 Norte 0 -- -- 67
2020-05-18 04:00:00 18.8 2 Nordeste 13 Noroeste 0 -- -- 69
2020-05-18 03:00:00 19 6 Norte 17 Este 0 -- -- 64
2020-05-18 02:00:00 19.2 5 Nordeste 14 Este 0 -- -- 57
2020-05-18 01:00:00 19.6 5 Este 16 Este 0 -- -- 55
2020-05-18 00:00:00 19.8 2 Este 10 Este 0 -- -- 53
2020-05-17 23:00:00 20.2 4 Nordeste 15 Este 0 -- -- 56
2020-05-17 22:00:00 20.4 7 Este 19 Este 0 -- -- 51
2020-05-17 21:00:00 21.3 6 Oeste 21 Sudoeste 0 -- -- 62
2020-05-17 20:00:00 22.7 12 Oeste 21 Sudoeste 0 -- -- 56
2020-05-17 19:00:00 22.7 8 Sudeste 19 Este 0 -- -- 54
2020-05-17 18:00:00 23.8 7 Sudoeste 19 Oeste 0 -- -- 49
2020-05-17 17:00:00 23.2 12 Este 25 Nordeste 0 -- -- 55
2020-05-17 16:00:00 24.2 12 Sudoeste 29 Sudoeste 0 -- -- 51
2020-05-17 15:00:00 22.5 14 Sudoeste 28 Oeste 0 -- -- 56
2020-05-17 14:00:00 22.3 15 Sudoeste 32 Oeste 0 -- -- 56
2020-05-17 13:00:00 22.3 13 Sudoeste 26 Sudoeste 0 -- -- 51
2020-05-17 12:00:00 22.2 15 Oeste 36 Noroeste 0 -- -- 56
2020-05-17 11:00:00 23 11 Este 29 Este 0 -- -- 53
2020-05-17 10:00:00 21.8 12 Este 25 Este 0 -- -- 57
2020-05-17 09:00:00 21.1 9 Norte 24 Nordeste 0 -- -- 51
2020-05-17 08:00:00 19.6 8 Nordeste 18 Sudeste 0 -- -- 60
2020-05-17 07:00:00 19.2 8 Este 16 Este 0 -- -- 66
2020-05-17 06:00:00 19.4 5 Este 10 Sudeste 0 -- -- 63
2020-05-17 05:00:00 19.4 5 Oeste 12 Este 0 -- -- 60
2020-05-17 04:00:00 19.6 6 Sudeste 14 Este 0 -- -- 60
2020-05-17 03:00:00 19.9 6 Norte 13 Norte 0 -- -- 60
2020-05-17 02:00:00 19.6 8 Noroeste 17 Sudeste 0 -- -- 61
2020-05-17 01:00:00 20.3 6 Este 12 Nordeste 0 -- -- 56
2020-05-17 00:00:00 20.2 4 Noroeste 8 Oeste 0 -- -- 58
2020-05-16 23:00:00 20.1 5 Nordeste 21 Este 0 -- -- 58
2020-05-16 22:00:00 20.6 3 Sudeste 18 Sur 0 -- -- 58
2020-05-16 21:00:00 21.1 10 Oeste 24 Oeste 0 -- -- 54
2020-05-16 20:00:00 21.9 15 Oeste 27 Sudoeste 0 -- -- 51
2020-05-16 19:00:00 23.3 6 Oeste 26 Sudeste 0 -- -- 46
2020-05-16 18:00:00 23.6 6 Este 44 Este 0 -- -- 45
2020-05-16 17:00:00 22.2 22 Este 40 Este 0 -- -- 53
2020-05-16 16:00:00 22.5 18 Este 37 Este 0 -- -- 49
2020-05-16 15:00:00 23.8 8 Sur 30 Sudeste 0 -- -- 43
2020-05-16 14:00:00 22.5 19 Este 28 Este 0 -- -- 47
2020-05-16 13:00:00 22.8 12 Sur 26 Sur 0 -- -- 45
2020-05-16 12:00:00 22.8 13 Sur 24 Sudeste 0 -- -- 47
2020-05-16 11:00:00 21.4 11 Sudeste 22 Sudeste 0 -- -- 52
2020-05-16 10:00:00 20.9 7 Sur 14 Sudoeste 0 -- -- 55
2020-05-16 09:00:00 20.7 4 Nordeste 9 Noroeste 0 -- -- 55
2020-05-16 08:00:00 18.6 8 Oeste 18 Este 0 -- -- 59
2020-05-16 07:00:00 19 6 Sudeste 14 Sudeste 0 -- -- 58
2020-05-16 06:00:00 18.6 2 Norte 11 Noroeste 0 -- -- 65
2020-05-16 05:00:00 19.2 6 Este 14 Este 0 -- -- 64
2020-05-16 04:00:00 19.3 3 Noroeste 6 Oeste 0 -- -- 63
2020-05-16 03:00:00 19.2 2 Nordeste 9 Este 0 -- -- 63
2020-05-16 02:00:00 19.4 0 Calma 6 Oeste 0 -- -- 65
2020-05-16 01:00:00 19.9 0 Calma 9 Este 0 -- -- 60
2020-05-16 00:00:00 20.1 4 Nordeste 13 Este 0 -- -- 60
2020-05-15 23:00:00 20.3 7 Sur 14 Sur 0 -- -- 66
2020-05-15 22:00:00 20.7 8 Sudoeste 12 Sudoeste 0 -- -- 64
2020-05-15 21:00:00 21.5 6 Sudoeste 10 Sudoeste 0 -- -- 59
2020-05-15 20:00:00 21.9 6 Sur 18 Sudeste 0 -- -- 58
2020-05-15 19:00:00 22 12 Sudeste 31 Sudoeste 0 -- -- 57
2020-05-15 18:00:00 23.7 15 Sur 26 Sur 0 -- -- 52
2020-05-15 17:00:00 24.1 14 Sur 31 Sudoeste 0 -- -- 52
2020-05-15 16:00:00 24.1 16 Sudoeste 28 Sudoeste 0 -- -- 51
2020-05-15 15:00:00 24.4 13 Sur 28 Sudoeste 0 -- -- 48
2020-05-15 14:00:00 23.4 15 Sur 29 Sudeste 0 -- -- 53
2020-05-15 13:00:00 21.9 17 Sudeste 27 Sudeste 0 -- -- 55
2020-05-15 12:00:00 22.2 12 Sudeste 23 Sur 0 -- -- 50
2020-05-15 11:00:00 21.7 9 Sudeste 18 Sudeste 0 -- -- 48
2020-05-15 10:00:00 21 10 Sudeste 15 Sudeste 0 -- -- 49
2020-05-15 09:00:00 20.4 2 Nordeste 8 Norte 0 -- -- 48
2020-05-15 08:00:00 17.9 4 Norte 11 Norte 0 -- -- 50
2020-05-15 07:00:00 17.6 9 Noroeste 21 Oeste 0 -- -- 54
2020-05-15 06:00:00 18 12 Noroeste 21 Noroeste 0 -- -- 53
2020-05-15 05:00:00 18.1 4 Norte 14 Nordeste 0 -- -- 55
2020-05-15 04:00:00 18.8 7 Noroeste 17 Noroeste 0 -- -- 44
2020-05-15 03:00:00 19.1 8 Noroeste 14 Noroeste 0 -- -- 49
2020-05-15 02:00:00 19.2 5 Noroeste 9 Sudeste 0 -- -- 58
2020-05-15 01:00:00 19.8 7 Sudoeste 14 Sur 0 -- -- 54
2020-05-15 00:00:00 20.2 2 Nordeste 12 Noroeste 0 -- -- 52
2020-05-14 23:00:00 20.8 9 Oeste 20 Noroeste 0 -- -- 44
2020-05-14 22:00:00 21.1 11 Oeste 25 Oeste 0 -- -- 44
2020-05-14 21:00:00 20.9 4 Sudoeste 19 Sudeste 0 -- -- 60
2020-05-14 20:00:00 21.2 8 Este 22 Este 0 -- -- 60
2020-05-14 19:00:00 21.5 11 Sudeste 19 Sudeste 0 -- -- 60
2020-05-14 18:00:00 23.9 11 Sudoeste 25 Sudoeste 0 -- -- 48
2020-05-14 17:00:00 25.1 13 Oeste 27 Oeste 0 -- -- 46
2020-05-14 16:00:00 23.6 10 Sur 21 Sur 0 -- -- 48
2020-05-14 15:00:00 23.6 13 Sur 25 Sudoeste 0 -- -- 53
2020-05-14 14:00:00 23.1 14 Sur 26 Sur 0 -- -- 56
2020-05-14 13:00:00 22.2 10 Sudeste 21 Sudeste 0 -- -- 55
2020-05-14 12:00:00 22.3 12 Sudeste 19 Este 0 -- -- 53
2020-05-14 11:00:00 22.2 8 Este 15 Sudeste 0 -- -- 61
2020-05-14 10:00:00 21.9 6 Este 14 Este 0 -- -- 58
2020-05-14 09:00:00 19.7 3 Nordeste 6 Nordeste 0 -- -- 56
2020-05-14 08:00:00 18.4 6 Norte 11 Norte 0 -- -- 59
2020-05-14 07:00:00 17.9 6 Norte 9 Noroeste 0 -- -- 63
2020-05-14 06:00:00 18.3 3 Norte 6 Noroeste 0 -- -- 60
2020-05-14 05:00:00 18.7 4 Norte 6 Norte 0 -- -- 59
2020-05-14 04:00:00 19 5 Norte 7 Norte 0 -- -- 52
2020-05-14 03:00:00 19.4 0 Calma 15 Noroeste 0 -- -- 48
2020-05-14 02:00:00 19.9 8 Oeste 16 Oeste 0 -- -- 52
2020-05-14 01:00:00 19.9 6 Oeste 10 Oeste 0 -- -- 68
2020-05-14 00:00:00 20.2 5 Sudoeste 6 Sudoeste 0 -- -- 70
2020-05-13 23:00:00 20.5 0 Calma 10 Sudeste 0 -- -- 69
2020-05-13 22:00:00 20.5 8 Sudeste 16 Sudeste 0 -- -- 73
2020-05-13 21:00:00 20.9 9 Sudeste 19 Sudeste 0 -- -- 72
2020-05-13 20:00:00 21.8 10 Sudeste 19 Sudeste 0 -- -- 69
2020-05-13 19:00:00 23.5 11 Sur 26 Sur 0 -- -- 62
2020-05-13 18:00:00 23.9 14 Sur 31 Sur 0 -- -- 63
2020-05-13 17:00:00 24.6 17 Sur 28 Sudoeste 0 -- -- 60
2020-05-13 16:00:00 24.7 17 Sudoeste 26 Sur 0 -- -- 59
2020-05-13 15:00:00 25.1 14 Sur 28 Sur 0 -- -- 51
2020-05-13 14:00:00 24.3 16 Sur 27 Sudoeste 0 -- -- 57
2020-05-13 13:00:00 24.6 13 Sur 33 Sudeste 0 -- -- 54
2020-05-13 12:00:00 24.4 13 Sur 24 Sudoeste 0 -- -- 53
2020-05-13 11:00:00 23 9 Sur 15 Sudoeste 0 -- -- 59
2020-05-13 10:00:00 21.3 9 Sudeste 14 Este 0 -- -- 71
2020-05-13 09:00:00 20.9 3 Noroeste 12 Norte 0 -- -- 73
2020-05-13 08:00:00 19.7 3 Sur 12 Sur 0 -- -- 79
2020-05-13 07:00:00 19.9 6 Sudoeste 16 Sur 0 -- -- 79
2020-05-13 06:00:00 19.7 4 Sudoeste 10 Sudoeste 0 -- -- 77
2020-05-13 05:00:00 19.8 4 Oeste 12 Sur 0 -- -- 73
2020-05-13 04:00:00 19.6 4 Sur 8 Sur 0 -- -- 74
2020-05-13 03:00:00 20 6 Noroeste 10 Noroeste 0 -- -- 71
2020-05-13 02:00:00 20.3 6 Sudoeste 17 Sur 0 -- -- 70
2020-05-13 01:00:00 20.5 9 Sur 14 Sur 0 -- -- 70
2020-05-13 00:00:00 20.5 4 Sur 10 Sudeste 0 -- -- 69
2020-05-12 23:00:00 20.5 5 Sudeste 14 Sudeste 0 -- -- 68
2020-05-12 22:00:00 20.6 6 Sudeste 15 Sudeste 0 -- -- 67
2020-05-12 21:00:00 20.8 8 Este 19 Este 0 -- -- 66
2020-05-12 20:00:00 21.4 9 Este 21 Este 0 -- -- 66
2020-05-12 19:00:00 21.7 14 Este 28 Este 0 -- -- 64
2020-05-12 18:00:00 22.2 14 Este 27 Este 0 -- -- 64
2020-05-12 17:00:00 22.7 15 Este 36 Sudeste 0 -- -- 63
2020-05-12 16:00:00 22.3 20 Sudeste 30 Sudeste 0 -- -- 64
2020-05-12 15:00:00 22.7 15 Sudeste 27 Sudeste 0 -- -- 61
2020-05-12 14:00:00 22.4 13 Sudeste 24 Sudeste 0 -- -- 63
2020-05-12 13:00:00 21.8 15 Sudeste 26 Sudeste 0 -- -- 65
2020-05-12 12:00:00 22.3 16 Sudeste 27 Sudeste 0 -- -- 65
2020-05-12 11:00:00 22 12 Sudeste 20 Sudeste 0 -- -- 59
2020-05-12 10:00:00 21.4 9 Sudeste 15 Este 0 -- -- 67
2020-05-12 09:00:00 21.4 4 Este 8 Sudeste 0 -- -- 67
2020-05-12 08:00:00 19.2 6 Norte 9 Norte 0 -- -- 73
2020-05-12 07:00:00 19.1 6 Norte 9 Norte 0 -- -- 74
2020-05-12 06:00:00 19.5 3 Nordeste 5 Nordeste 0 -- -- 69
2020-05-12 05:00:00 19.4 0 Calma 5 Sudoeste 0 -- -- 64
2020-05-12 04:00:00 20 4 Noroeste 12 Oeste 0 -- -- 54
2020-05-12 03:00:00 20.3 5 Oeste 10 Oeste 0 -- -- 81
2020-05-12 02:00:00 19.9 5 Sudoeste 9 Sudoeste 0 -- -- 83
2020-05-12 01:00:00 20.2 5 Sur 9 Sur 0 -- -- 82
2020-05-12 00:00:00 20.5 0 Calma 5 Sudeste 0 -- -- 77
2020-05-11 23:00:00 20.9 4 Sudeste 8 Sur 0 -- -- 77
2020-05-11 22:00:00 21.1 5 Sur 12 Sudeste 0 -- -- 72
2020-05-11 21:00:00 21.1 9 Sudeste 15 Sudeste 0 -- -- 80
2020-05-11 20:00:00 21.6 11 Sudeste 22 Sur 0 -- -- 75
2020-05-11 19:00:00 22.6 12 Sur 21 Sudeste 0 -- -- 68
2020-05-11 18:00:00 22.6 13 Sudeste 23 Sudeste 0 -- -- 69
2020-05-11 17:00:00 22.2 15 Sudeste 25 Sudeste 0 -- -- 69
2020-05-11 16:00:00 22.6 14 Sudeste 24 Sudeste 0 -- -- 70
2020-05-11 15:00:00 22.8 13 Sudeste 24 Sudeste 0 -- -- 67
2020-05-11 14:00:00 22.3 16 Sudeste 27 Sudeste 0 -- -- 69
2020-05-11 13:00:00 22.9 14 Sur 26 Sudeste 0 -- -- 68
2020-05-11 12:00:00 23.8 12 Sur 24 Sur 0 -- -- 64
2020-05-11 11:00:00 22.9 10 Sudoeste 20 Sudoeste 0 -- -- 65
2020-05-11 10:00:00 21.8 8 Oeste 15 Sudoeste 0 -- -- 69
2020-05-11 09:00:00 22.2 5 Sudoeste 10 Sudoeste 0 -- -- 71
2020-05-11 08:00:00 20.4 4 Este 11 Este 0 -- -- 77
2020-05-11 07:00:00 19.8 0 Calma 9 Sudeste 0 -- -- 80
2020-05-11 06:00:00 19.9 3 Sur 10 Oeste 0 -- -- 79
2020-05-11 05:00:00 20 6 Oeste 13 Noroeste 0 -- -- 78
2020-05-11 04:00:00 20 6 Noroeste 16 Oeste 0 -- -- 76
2020-05-11 03:00:00 20.3 8 Noroeste 14 Noroeste 0 -- -- 77
2020-05-11 02:00:00 20.4 5 Oeste 13 Noroeste 0 -- -- 78
2020-05-11 01:00:00 20.2 3 Sur 10 Sudoeste 0 -- -- 79
2020-05-11 00:00:00 20.7 6 Sudoeste 17 Oeste 0 -- -- 79
2020-05-10 23:00:00 20.9 10 Oeste 19 Oeste 0 -- -- 79
2020-05-10 22:00:00 21.1 7 Sudoeste 17 Sur 0 -- -- 78
2020-05-10 21:00:00 21.5 10 Sur 18 Sur 0 -- -- 74
2020-05-10 20:00:00 22.6 8 Sur 23 Sur 0 -- -- 69
2020-05-10 19:00:00 23.8 14 Sudoeste 25 Sudoeste 0 -- -- 63
2020-05-10 18:00:00 24.3 16 Sudoeste 25 Sur 0 -- -- 61
2020-05-10 17:00:00 24.8 16 Sudoeste 30 Sudoeste 0 -- -- 58
2020-05-10 16:00:00 24.6 18 Sudoeste 28 Sur 0 -- -- 59
2020-05-10 15:00:00 25.2 13 Sudoeste 27 Sudoeste 0 -- -- 56
2020-05-10 14:00:00 24.5 16 Sudoeste 26 Sudoeste 0 -- -- 57
2020-05-10 13:00:00 24 14 Sur 23 Sudoeste 0 -- -- 58
2020-05-10 12:00:00 23.3 10 Sur 21 Sudoeste 0 -- -- 60
2020-05-10 11:00:00 21.9 9 Sur 17 Sur 0 -- -- 65
2020-05-10 10:00:00 20.7 9 Sudeste 14 Sudoeste 0 -- -- 73
2020-05-10 09:00:00 21 7 Oeste 14 Oeste 0 -- -- 73
2020-05-10 08:00:00 20.1 7 Noroeste 10 Noroeste 0 -- -- 76
2020-05-10 07:00:00 19.6 0 Calma 10 Este 0 -- -- 79
2020-05-10 06:00:00 19.9 5 Este 12 Nordeste 0 -- -- 81
2020-05-10 05:00:00 20.1 8 Nordeste 13 Nordeste 0 -- -- 82
2020-05-10 04:00:00 20.5 0 Calma 8 Oeste 0 -- -- 79
2020-05-10 03:00:00 20.4 4 Oeste 7 Noroeste 0 -- -- 78
2020-05-10 02:00:00 20.4 4 Oeste 6 Oeste 0 -- -- 80
2020-05-10 01:00:00 20.6 4 Noroeste 8 Noroeste 0 -- -- 79
2020-05-10 00:00:00 20.6 8 Noroeste 10 Oeste 0 -- -- 79
2020-05-09 23:00:00 20.9 5 Oeste 10 Sudoeste 0 -- -- 77
2020-05-09 22:00:00 21 6 Sudoeste 9 Sudoeste 0 -- -- 76
2020-05-09 21:00:00 21.4 4 Sudoeste 13 Sur 0 -- -- 72
2020-05-09 20:00:00 22.4 8 Sur 19 Sudoeste 0 -- -- 68
2020-05-09 19:00:00 23.6 14 Sudoeste 20 Sudoeste 0 -- -- 65
2020-05-09 18:00:00 24.2 12 Sudoeste 26 Sudoeste 0 -- -- 64
2020-05-09 17:00:00 24.6 15 Sudoeste 31 Sur 0 -- -- 62
2020-05-09 16:00:00 24.9 16 Sudoeste 28 Sudoeste 0 -- -- 61
2020-05-09 15:00:00 24.5 14 Sur 26 Sudoeste 0 -- -- 61
2020-05-09 14:00:00 24.5 12 Sur 24 Sudoeste 0 -- -- 61
2020-05-09 13:00:00 23 12 Sudeste 20 Sudeste 0 -- -- 65
2020-05-09 12:00:00 23.6 10 Sur 19 Sur 0 -- -- 62
2020-05-09 11:00:00 23.1 9 Sur 19 Sur 0 -- -- 64
2020-05-09 10:00:00 22 10 Sudoeste 18 Sudoeste 0 -- -- 67
2020-05-09 09:00:00 20.4 4 Oeste 9 Oeste 0 -- -- 71
2020-05-09 08:00:00 18.8 4 Norte 6 Norte 0 -- -- 74
2020-05-09 07:00:00 18.6 3 Nordeste 8 Norte 0 -- -- 74
2020-05-09 06:00:00 18.6 3 Norte 5 Norte 0 -- -- 75
2020-05-09 05:00:00 18.9 0 Calma 4 Sudeste 0 -- -- 73
2020-05-09 04:00:00 19.2 3 Nordeste 6 Sudoeste 0 -- -- 75
2020-05-09 03:00:00 19.4 4 Oeste 9 Sudoeste 0 -- -- 76
2020-05-09 02:00:00 19.6 0 Calma 6 Este 0 -- -- 73
2020-05-09 01:00:00 20.1 0 Calma 6 Nordeste 0 -- -- 73
2020-05-09 00:00:00 20.6 2 Oeste 8 Oeste 0 -- -- 72
2020-05-08 23:00:00 21.1 5 Oeste 9 Sudoeste 0 -- -- 70
2020-05-08 22:00:00 21.3 6 Oeste 14 Oeste 0 -- -- 69
2020-05-08 21:00:00 21.6 8 Sudoeste 20 Sudoeste 0 -- -- 69
2020-05-08 20:00:00 22.6 12 Oeste 25 Sur 0 -- -- 65
2020-05-08 19:00:00 22.8 9 Noroeste 28 Este 0 -- -- 66
2020-05-08 18:00:00 21.8 17 Sudeste 33 Este 0 -- -- 71
2020-05-08 17:00:00 22.4 15 Sudeste 34 Este 0 -- -- 65
2020-05-08 16:00:00 21.6 13 Sudeste 33 Este 0 -- -- 71
2020-05-08 15:00:00 22.6 14 Este 29 Este 0 -- -- 66
2020-05-08 14:00:00 22.9 9 Sudeste 27 Sudoeste 0 -- -- 64
2020-05-08 13:00:00 23.7 14 Sur 27 Sur 0 -- -- 59
2020-05-08 12:00:00 23.1 12 Sur 21 Sudoeste 0 -- -- 60
2020-05-08 11:00:00 21 11 Sudeste 19 Este 0 -- -- 68
2020-05-08 10:00:00 22 8 Sudoeste 14 Sudoeste 0 -- -- 64
2020-05-08 09:00:00 20.5 3 Noroeste 10 Noroeste 0 -- -- 64
2020-05-08 08:00:00 18.2 5 Norte 10 Noroeste 0 -- -- 68
2020-05-08 07:00:00 18 3 Noroeste 10 Norte 0 -- -- 72
2020-05-08 06:00:00 18.3 4 Norte 10 Noroeste 0 -- -- 73
2020-05-08 05:00:00 18.6 6 Norte 12 Norte 0 -- -- 73
2020-05-08 04:00:00 18.9 6 Noroeste 10 Noroeste 0 -- -- 74
2020-05-08 03:00:00 19.2 4 Norte 7 Nordeste 0 -- -- 73
2020-05-08 02:00:00 19.6 2 Nordeste 8 Este 0 -- -- 68
2020-05-08 01:00:00 19.9 0 Calma 8 Este 0 -- -- 67
2020-05-08 00:00:00 20 3 Nordeste 8 Sudeste 0 -- -- 70
2020-05-07 23:00:00 20.4 6 Oeste 15 Oeste 0 -- -- 71
2020-05-07 22:00:00 20.6 8 Oeste 13 Oeste 0 -- -- 70
2020-05-07 21:00:00 20.5 3 Sur 14 Sudoeste 0 -- -- 69
2020-05-07 20:00:00 22.1 8 Sudoeste 19 Sur 0 -- -- 64
2020-05-07 19:00:00 22.4 11 Sur 23 Sur 0 -- -- 62
2020-05-07 18:00:00 22 14 Sudoeste 24 Sudoeste 0 -- -- 64
2020-05-07 17:00:00 22.7 15 Sudoeste 35 Oeste 0 -- -- 62
2020-05-07 16:00:00 24.3 16 Sudoeste 31 Oeste 0 -- -- 55
2020-05-07 15:00:00 24.5 17 Sudoeste 28 Sudoeste 0 -- -- 52
2020-05-07 14:00:00 24.7 12 Sudoeste 25 Sudoeste 0 -- -- 53
2020-05-07 13:00:00 23.5 15 Oeste 25 Oeste 0 -- -- 57
2020-05-07 12:00:00 23.4 9 Sur 21 Sudeste 0 -- -- 58
2020-05-07 11:00:00 21.9 10 Sudeste 18 Sudeste 0 -- -- 64
2020-05-07 10:00:00 20.8 5 Sudeste 13 Sudeste 0 -- -- 69
2020-05-07 09:00:00 19.7 3 Norte 8 Noroeste 0 -- -- 71
2020-05-07 08:00:00 18.5 4 Norte 6 Noroeste 0 -- -- 74
2020-05-07 07:00:00 18.3 0 Calma 9 Este 0 -- -- 71
2020-05-07 06:00:00 18.4 0 Calma 4 Este 0 -- -- 72
2020-05-07 05:00:00 18.6 0 Calma 2 Oeste 0 -- -- 71
2020-05-07 04:00:00 19 0 Calma 9 Este 0 -- -- 69
2020-05-07 03:00:00 19.3 3 Este 6 Nordeste 0 -- -- 72
2020-05-07 02:00:00 19.6 2 Sur 6 Este 0 -- -- 73
2020-05-07 01:00:00 20.1 2 Noroeste 10 Oeste 0 -- -- 76
2020-05-07 00:00:00 20.5 5 Oeste 10 Oeste 0 -- -- 75
2020-05-06 23:00:00 20.8 4 Sudoeste 9 Sudoeste 0 -- -- 73
2020-05-06 22:00:00 21 5 Sudoeste 14 Oeste 0 -- -- 69
2020-05-06 21:00:00 21.5 10 Oeste 23 Oeste 0 -- -- 65
2020-05-06 20:00:00 23.2 15 Oeste 24 Oeste 0 -- -- 55
2020-05-06 19:00:00 24.5 11 Sudoeste 17 Sudoeste 0 -- -- 52
2020-05-06 18:00:00 23.8 8 Sudeste 19 Oeste 0 -- -- 60
2020-05-06 17:00:00 24.3 12 Sudoeste 26 Sudoeste 0 -- -- 58
2020-05-06 16:00:00 23.6 13 Sur 25 Sur 0 -- -- 58
2020-05-06 15:00:00 23.7 18 Sudoeste 28 Sudoeste 0 -- -- 54
2020-05-06 14:00:00 23.8 13 Sudoeste 22 Sudoeste 0 -- -- 57
2020-05-06 13:00:00 23.8 13 Sudoeste 20 Sudoeste 0 -- -- 57
2020-05-06 12:00:00 23.4 11 Sudoeste 22 Sudoeste 0 -- -- 58
2020-05-06 11:00:00 22.5 10 Oeste 18 Sudoeste 0 -- -- 61
2020-05-06 10:00:00 21.5 6 Sudeste 13 Este 0 -- -- 65
2020-05-06 09:00:00 20.1 4 Nordeste 8 Este 0 -- -- 70
2020-05-06 08:00:00 18.3 4 Norte 10 Norte 0 -- -- 73
2020-05-06 07:00:00 17.9 0 Calma 6 Nordeste 0 -- -- 72
2020-05-06 06:00:00 18.2 6 Norte 10 Norte 0 -- -- 71
2020-05-06 05:00:00 18.7 3 Nordeste 6 Nordeste 0 -- -- 65
2020-05-06 04:00:00 19 2 Nordeste 6 Nordeste 0 -- -- 63
2020-05-06 03:00:00 19.2 0 Calma 7 Nordeste 0 -- -- 61
2020-05-06 02:00:00 19.5 0 Calma 5 Sudeste 0 -- -- 65
2020-05-06 01:00:00 19.6 4 Sur 8 Sudoeste 0 -- -- 63
2020-05-06 00:00:00 20.1 4 Sur 12 Sudeste 0 -- -- 62
2020-05-05 23:00:00 20.7 5 Oeste 13 Noroeste 0 -- -- 68
2020-05-05 22:00:00 21 6 Oeste 12 Oeste 0 -- -- 65
2020-05-05 21:00:00 21.5 5 Oeste 14 Sudoeste 0 -- -- 63
2020-05-05 20:00:00 22.8 9 Sudoeste 20 Sudoeste 0 -- -- 57
2020-05-05 19:00:00 23.9 11 Sudoeste 25 Oeste 0 -- -- 55
2020-05-05 18:00:00 24.6 17 Oeste 36 Oeste 0 -- -- 53
2020-05-05 17:00:00 24.4 17 Este 48 Este 0 -- -- 53
2020-05-05 16:00:00 23.3 21 Este 44 Este 0 -- -- 56
2020-05-05 15:00:00 22.6 19 Este 39 Sudeste 0 -- -- 61
2020-05-05 14:00:00 22.2 19 Este 40 Este 0 -- -- 63
2020-05-05 13:00:00 22.3 18 Este 38 Este 0 -- -- 62
2020-05-05 12:00:00 22.4 16 Este 33 Este 0 -- -- 61
2020-05-05 11:00:00 21.9 9 Sudeste 16 Este 0 -- -- 63
2020-05-05 10:00:00 21.4 8 Este 14 Nordeste 0 -- -- 64
2020-05-05 09:00:00 20.2 4 Este 7 Nordeste 0 -- -- 69
2020-05-05 08:00:00 18 2 Nordeste 8 Norte 0 -- -- 78
2020-05-05 07:00:00 17.9 4 Norte 9 Noroeste 0 -- -- 75
2020-05-05 06:00:00 18.2 3 Noroeste 5 Noroeste 0 -- -- 80
2020-05-05 05:00:00 18.3 0 Calma 4 Nordeste 0 -- -- 78
2020-05-05 04:00:00 18.4 0 Calma 4 Oeste 0 -- -- 79
2020-05-05 03:00:00 18.9 0 Calma 5 Oeste 0 -- -- 79
2020-05-05 02:00:00 19.4 2 Noroeste 4 Oeste 0 -- -- 80
2020-05-05 01:00:00 19.7 0 Calma 5 Sudeste 0 -- -- 78
2020-05-05 00:00:00 20.2 0 Calma 5 Nordeste 0 -- -- 77
2020-05-04 23:00:00 20.5 0 Calma 11 Noroeste 0 -- -- 77
2020-05-04 22:00:00 20.9 5 Oeste 10 Oeste 0 -- -- 77
2020-05-04 21:00:00 21 5 Sudoeste 15 Sur 0 -- -- 76
2020-05-04 20:00:00 21.5 9 Sudoeste 14 Sudoeste 0 -- -- 74
2020-05-04 19:00:00 21.7 5 Sur 14 Sur 0 -- -- 74
2020-05-04 18:00:00 21.8 9 Sudoeste 16 Sudeste 0 -- -- 75
2020-05-04 17:00:00 21.4 8 Sudeste 23 Sudeste 0 -- -- 77
2020-05-04 16:00:00 21 9 Sudeste 23 Sudeste 0 -- -- 77
2020-05-04 15:00:00 21.5 15 Sudeste 24 Sudeste 0 -- -- 74
2020-05-04 14:00:00 21.6 17 Sudeste 26 Este 0 -- -- 77
2020-05-04 13:00:00 21.2 17 Sudeste 30 Sudeste 0 -- -- 79
2020-05-04 12:00:00 21.2 17 Este 27 Sudeste 0 -- -- 78
2020-05-04 11:00:00 21.3 17 Este 32 Este 0 -- -- 79
2020-05-04 10:00:00 20.9 15 Este 25 Sudeste 0 -- -- 80
2020-05-04 09:00:00 20.3 9 Este 18 Este 0 -- -- 73
2020-05-04 08:00:00 18.9 4 Este 12 Este 0 -- -- 86
2020-05-04 07:00:00 18.7 4 Este 10 Nordeste 0 -- -- 86
2020-05-04 06:00:00 18.7 5 Este 12 Este 0 -- -- 84
2020-05-04 05:00:00 18.6 2 Este 9 Nordeste 0 -- -- 81
2020-05-04 04:00:00 18.9 0 Calma 5 Este 0 -- -- 82
2020-05-04 03:00:00 19.2 3 Este 8 Este 0 -- -- 80
2020-05-04 02:00:00 19.4 3 Este 8 Este 0 -- -- 79
2020-05-04 01:00:00 19.6 2 Nordeste 12 Oeste 0 -- -- 79
2020-05-04 00:00:00 19.9 8 Oeste 18 Oeste 0 -- -- 76
2020-05-03 23:00:00 19.9 8 Oeste 21 Oeste 0 -- -- 76
2020-05-03 22:00:00 20.1 9 Oeste 19 Oeste 0 -- -- 76
2020-05-03 21:00:00 20.4 6 Sudeste 21 Oeste 0 -- -- 80
2020-05-03 20:00:00 22.3 12 Oeste 35 Oeste 0 -- -- 68
2020-05-03 19:00:00 22.9 19 Oeste 38 Sudoeste 0 -- -- 66
2020-05-03 18:00:00 23.9 20 Sudoeste 39 Sudoeste 0 -- -- 63
2020-05-03 17:00:00 23.6 22 Sudoeste 41 Sudoeste 0 -- -- 62
2020-05-03 16:00:00 23.6 24 Oeste 45 Sudoeste 0 -- -- 62
2020-05-03 15:00:00 23.7 24 Sudoeste 41 Sudoeste 0 -- -- 64
2020-05-03 14:00:00 23 23 Oeste 39 Sudoeste 0 -- -- 65
2020-05-03 13:00:00 22.8 17 Oeste 33 Sudoeste 0 -- -- 65
2020-05-03 12:00:00 22.5 11 Sudoeste 22 Sudoeste 0 -- -- 66
2020-05-03 11:00:00 21.3 12 Sudoeste 24 Oeste 0 -- -- 70
2020-05-03 10:00:00 20.3 5 Noroeste 17 Oeste 0 -- -- 75
2020-05-03 09:00:00 18.7 6 Oeste 11 Oeste 0 -- -- 82
2020-05-03 08:00:00 18.1 4 Norte 6 Norte 0 -- -- 86
2020-05-03 07:00:00 17.3 2 Noroeste 10 Oeste 0 -- -- 89
2020-05-03 06:00:00 17.2 6 Oeste 13 Noroeste 0 -- -- 87
2020-05-03 05:00:00 18.1 8 Este 20 Este 0 -- -- 86
2020-05-03 04:00:00 18.7 8 Este 19 Este 0 -- -- 87
2020-05-03 03:00:00 18.6 6 Nordeste 15 Nordeste 0 -- -- 88
2020-05-03 02:00:00 18.9 3 Nordeste 6 Norte 0 -- -- 86
2020-05-03 01:00:00 19.1 4 Sudoeste 8 Sudoeste 0 -- -- 87
2020-05-03 00:00:00 19.2 2 Sudoeste 9 Oeste 0 -- -- 85
2020-05-02 23:00:00 19.4 3 Sudoeste 7 Sudoeste 0 -- -- 84
2020-05-02 22:00:00 19.4 3 Sudeste 9 Sudeste 0 -- -- 84
2020-05-02 21:00:00 19.6 6 Este 10 Este 0 -- -- 81
2020-05-02 20:00:00 20.2 8 Este 16 Este 0 -- -- 79
2020-05-02 19:00:00 23.4 7 Sudoeste 16 Oeste 0 -- -- 66
2020-05-02 18:00:00 23.3 5 Sudoeste 15 Sudeste 0 -- -- 66
2020-05-02 17:00:00 20.9 9 Sudeste 17 Sudeste 0 -- -- 74
2020-05-02 16:00:00 21 9 Este 21 Este 0 -- -- 74
2020-05-02 15:00:00 20.9 13 Este 24 Sudeste 0 -- -- 74
2020-05-02 14:00:00 20.8 14 Este 27 Este 0 -- -- 73
2020-05-02 13:00:00 20.3 16 Este 31 Este 0 -- -- 74
2020-05-02 12:00:00 20.5 17 Este 36 Este 0 -- -- 73
2020-05-02 11:00:00 20.4 15 Este 32 Este 0 -- -- 74
2020-05-02 10:00:00 20.8 9 Este 21 Este 0 -- -- 69
2020-05-02 09:00:00 19.4 6 Nordeste 12 Nordeste 0 -- -- 74
2020-05-02 08:00:00 17.7 0 Calma 4 Este 0 -- -- 80
2020-05-02 07:00:00 17.7 0 Calma 6 Oeste 0 -- -- 78
2020-05-02 06:00:00 18.1 0 Calma 8 Nordeste 0 -- -- 74
2020-05-02 05:00:00 18.6 4 Este 9 Nordeste 0 -- -- 73
2020-05-02 04:00:00 19 3 Nordeste 12 Este 0 -- -- 74
2020-05-02 03:00:00 18.9 6 Este 12 Nordeste 0 -- -- 74
2020-05-02 02:00:00 19.3 4 Este 9 Este 0 -- -- 78
2020-05-02 01:00:00 19.7 2 Oeste 12 Noroeste 0 -- -- 79
2020-05-02 00:00:00 20.1 4 Sudoeste 13 Sudoeste 0 -- -- 78
2020-05-01 23:00:00 20.2 3 Sudoeste 8 Sudoeste 0 -- -- 77
2020-05-01 22:00:00 20.6 6 Sudoeste 15 Sudoeste 0 -- -- 76
2020-05-01 21:00:00 21.3 9 Sudoeste 18 Sudoeste 0 -- -- 72
2020-05-01 20:00:00 23.1 10 Sudoeste 19 Oeste 0 -- -- 64
2020-05-01 19:00:00 23.9 10 Oeste 25 Oeste 0 -- -- 61
2020-05-01 18:00:00 23.8 13 Oeste 42 Oeste 0 -- -- 61
2020-05-01 17:00:00 24.9 15 Oeste 34 Oeste 0 -- -- 58
2020-05-01 16:00:00 25.1 14 Sudoeste 27 Sudoeste 0 -- -- 57
2020-05-01 15:00:00 24.8 13 Noroeste 40 Este 0 -- -- 55
2020-05-01 14:00:00 23.3 19 Este 42 Sudeste 0 -- -- 61
2020-05-01 13:00:00 23.7 12 Este 31 Sudeste 0 -- -- 59
2020-05-01 12:00:00 22.8 14 Oeste 23 Sudoeste 0 -- -- 63
2020-05-01 11:00:00 22.5 13 Sudoeste 19 Sudoeste 0 -- -- 64
2020-05-01 10:00:00 20.8 8 Sudeste 15 Sudeste 0 -- -- 70
2020-05-01 09:00:00 19.9 3 Noroeste 6 Oeste 0 -- -- 72
2020-05-01 08:00:00 17.9 4 Norte 7 Norte 0 -- -- 77
2020-05-01 07:00:00 17.8 4 Norte 8 Norte 0 -- -- 78
2020-05-01 06:00:00 17.7 0 Calma 6 Norte 0 -- -- 80
2020-05-01 05:00:00 18.1 3 Norte 6 Noroeste 0 -- -- 78
2020-05-01 04:00:00 18.2 0 Calma 7 Nordeste 0 -- -- 72
2020-05-01 03:00:00 18.9 5 Nordeste 9 Nordeste 0 -- -- 68
2020-05-01 02:00:00 19.2 3 Este 10 Este 0 -- -- 70
2020-05-01 01:00:00 19.6 3 Este 6 Este 0 -- -- 73
2020-05-01 00:00:00 20 3 Oeste 10 Oeste 0 -- -- 78
2020-04-30 23:00:00 20.3 5 Oeste 12 Sudoeste 0 -- -- 75
2020-04-30 22:00:00 20.6 7 Sudoeste 12 Sudoeste 0 -- -- 74
2020-04-30 21:00:00 21.5 5 Sudoeste 14 Oeste 0 -- -- 69
2020-04-30 20:00:00 23 8 Sudoeste 19 Sudoeste 0 -- -- 62
2020-04-30 19:00:00 24.1 13 Sudoeste 19 Sudoeste 0 -- -- 53
2020-04-30 18:00:00 24.6 13 Oeste 27 Sudoeste 0 -- -- 52
2020-04-30 17:00:00 25 13 Sudoeste 24 Sur 0 -- -- 53
2020-04-30 16:00:00 25 13 Sudoeste 28 Oeste 0 -- -- 51
2020-04-30 15:00:00 24.7 17 Sudoeste 28 Sudoeste 0 -- -- 53
2020-04-30 14:00:00 23.6 17 Oeste 28 Oeste 0 -- -- 59
2020-04-30 13:00:00 23.7 16 Sudoeste 24 Sudoeste 0 -- -- 57
2020-04-30 12:00:00 23.3 12 Sudoeste 21 Sudoeste 0 -- -- 59
2020-04-30 11:00:00 22.4 9 Sudoeste 16 Sudoeste 0 -- -- 63
2020-04-30 10:00:00 21.5 7 Sudoeste 13 Sur 0 -- -- 63
2020-04-30 09:00:00 19.3 4 Noroeste 10 Norte 0 -- -- 69
2020-04-30 08:00:00 17.1 6 Norte 12 Noroeste 0 -- -- 70
2020-04-30 07:00:00 17.5 7 Noroeste 11 Noroeste 0 -- -- 74
2020-04-30 06:00:00 17.4 4 Noroeste 9 Norte 0 -- -- 72
2020-04-30 05:00:00 17.6 6 Noroeste 12 Noroeste 0 -- -- 70
2020-04-30 04:00:00 17.8 6 Noroeste 11 Noroeste 0 -- -- 74
2020-04-30 03:00:00 17.9 5 Norte 9 Norte 0 -- -- 74
2020-04-30 02:00:00 18.2 0 Calma 8 Este 0 -- -- 68
2020-04-30 01:00:00 18.7 2 Sudeste 5 Sudeste 0 -- -- 76
2020-04-30 00:00:00 19.1 3 Oeste 8 Oeste 0 -- -- 73
2020-04-29 23:00:00 19.3 5 Sudoeste 8 Sudoeste 0 -- -- 73
2020-04-29 22:00:00 19.5 5 Sur 10 Sur 0 -- -- 73
2020-04-29 21:00:00 20.1 3 Sur 16 Sudoeste 0 -- -- 69
2020-04-29 20:00:00 21.4 9 Sudoeste 26 Sudoeste 0 -- -- 65
2020-04-29 19:00:00 22.7 14 Sudoeste 26 Sudoeste 0 -- -- 57
2020-04-29 18:00:00 23.5 15 Oeste 30 Noroeste 0 -- -- 54
2020-04-29 17:00:00 23.7 15 Sudoeste 25 Sudoeste 0 -- -- 56
2020-04-29 16:00:00 23.9 14 Oeste 28 Sudoeste 0 -- -- 55
2020-04-29 15:00:00 24.1 9 Oeste 30 Sudoeste 0 -- -- 57
2020-04-29 14:00:00 23.7 15 Sudoeste 30 Sudoeste 0 -- -- 58
2020-04-29 13:00:00 23.7 15 Sudoeste 24 Sudoeste 0 -- -- 58
2020-04-29 12:00:00 23 14 Oeste 22 Oeste 0 -- -- 58
2020-04-29 11:00:00 21.4 12 Sudeste 17 Sudeste 0 -- -- 64
2020-04-29 10:00:00 20.3 6 Este 10 Este 0 -- -- 68
2020-04-29 09:00:00 19.6 3 Este 8 Este 0 -- -- 69
2020-04-29 08:00:00 17.7 5 Noroeste 10 Noroeste 0 -- -- 70
2020-04-29 07:00:00 17.4 5 Norte 8 Norte 0 -- -- 72
2020-04-29 06:00:00 17.5 3 Noroeste 7 Noroeste 0 -- -- 75
2020-04-29 05:00:00 18 4 Norte 9 Este 0 -- -- 73
2020-04-29 04:00:00 18.4 5 Nordeste 10 Este 0 -- -- 67
2020-04-29 03:00:00 18.7 2 Nordeste 10 Este 0 -- -- 69
2020-04-29 02:00:00 18.9 6 Nordeste 18 Este 0 -- -- 70
2020-04-29 01:00:00 19.4 6 Nordeste 13 Nordeste 0 -- -- 67
2020-04-29 00:00:00 19.5 4 Este 12 Nordeste 0 -- -- 69